Time;durP1;ratioP1;P1;durP2;ratioP2;P2;SDS_P1;SDS_P2;PMS_P1;PMS_P2;Temp;Humidity;BMP_temperature;BMP_pressure;BME280_temperature;BME280_humidity;BME280_pressure;Samples;Min_cycle;Max_cycle;Signal;HPM_P1;HPM_P2
2021/03/19 00:01:27;;;;;;;20.10;14.33;;;0.20;99.90;;;;;;5082616;28;20032;-73
2021/03/19 00:03:53;;;;;;;22.23;14.77;;;0.30;99.90;;;;;;5090947;28;20127;-74
2021/03/19 00:06:19;;;;;;;23.30;14.60;;;0.30;99.90;;;;;;5091525;28;20036;-73
2021/03/19 00:08:45;;;;;;;19.63;14.47;;;0.20;99.90;;;;;;5091290;28;20757;-73
2021/03/19 00:11:11;;;;;;;24.70;14.47;;;0.30;99.90;;;;;;5091662;28;20020;-73
2021/03/19 00:13:37;;;;;;;20.57;14.37;;;0.30;99.90;;;;;;5073288;28;20465;-73
2021/03/19 00:16:02;;;;;;;20.53;14.63;;;0.30;99.90;;;;;;5091228;28;20020;-73
2021/03/19 00:18:28;;;;;;;21.63;14.53;;;0.40;99.90;;;;;;5090490;28;20028;-74
2021/03/19 00:20:54;;;;;;;25.30;15.67;;;0.40;99.90;;;;;;5088921;28;20487;-74
2021/03/19 00:23:20;;;;;;;21.30;14.93;;;0.30;99.90;;;;;;5094208;28;20024;-74
2021/03/19 00:25:45;;;;;;;21.23;14.97;;;0.30;99.90;;;;;;5077098;28;20074;-73
2021/03/19 00:28:15;;;;;;;23.97;15.50;;;0.30;99.90;;;;;;5095154;28;20028;-73
2021/03/19 00:30:42;;;;;;;23.27;15.97;;;0.30;99.90;;;;;;5095383;28;20096;-74
2021/03/19 00:33:08;;;;;;;24.60;15.23;;;0.30;99.90;;;;;;5063153;28;20061;-74
2021/03/19 00:35:34;;;;;;;22.27;15.37;;;0.30;99.90;;;;;;5077284;28;20060;-74
2021/03/19 00:38:00;;;;;;;24.37;14.93;;;0.30;99.90;;;;;;5076783;28;20050;-74
2021/03/19 00:40:26;;;;;;;22.77;15.30;;;0.30;99.90;;;;;;5092268;28;20016;-74
2021/03/19 00:42:52;;;;;;;26.47;16.73;;;0.20;99.90;;;;;;5082633;28;20476;-74
2021/03/19 00:45:18;;;;;;;24.27;15.97;;;0.20;99.90;;;;;;5088927;28;20092;-74
2021/03/19 00:47:44;;;;;;;23.00;15.67;;;0.20;99.90;;;;;;5085247;28;20067;-74
2021/03/19 00:50:14;;;;;;;24.83;16.40;;;0.20;99.90;;;;;;5094751;28;20028;-74
2021/03/19 00:52:40;;;;;;;24.20;16.53;;;0.20;99.90;;;;;;5076820;28;20024;-73
2021/03/19 00:55:10;;;;;;;26.97;17.57;;;0.20;99.90;;;;;;5076489;28;20101;-74
2021/03/19 00:57:36;;;;;;;24.63;16.17;;;0.20;99.90;;;;;;5076614;28;20385;-74
2021/03/19 01:00:05;;;;;;;23.47;15.60;;;0.20;99.90;;;;;;5094705;28;20024;-73
2021/03/19 01:02:31;;;;;;;25.53;16.43;;;0.20;99.90;;;;;;5075269;28;20586;-74
2021/03/19 01:04:57;;;;;;;30.23;18.20;;;0.20;99.90;;;;;;5093598;28;20027;-73
2021/03/19 01:07:22;;;;;;;23.97;16.67;;;0.10;99.90;;;;;;5094266;28;20419;-73
2021/03/19 01:09:48;;;;;;;25.47;16.37;;;0.10;99.90;;;;;;5094392;28;20024;-73
2021/03/19 01:12:14;;;;;;;23.47;15.80;;;0.10;99.90;;;;;;5094295;28;20046;-74
2021/03/19 01:14:39;;;;;;;28.50;17.07;;;0.00;99.90;;;;;;5094160;28;20028;-74
2021/03/19 01:17:05;;;;;;;24.20;16.30;;;0.00;99.90;;;;;;5094447;28;20032;-73
2021/03/19 01:19:30;;;;;;;28.03;17.43;;;0.00;99.90;;;;;;5074059;28;20025;-73
2021/03/19 01:21:56;;;;;;;29.50;18.53;;;-0.10;99.90;;;;;;5086318;28;20035;-73
2021/03/19 01:24:22;;;;;;;28.30;18.43;;;-0.10;99.90;;;;;;5094324;28;20423;-73
2021/03/19 01:26:47;;;;;;;30.53;18.13;;;-0.10;99.90;;;;;;5075492;28;20047;-76
2021/03/19 01:29:13;;;;;;;30.03;18.20;;;-0.10;99.90;;;;;;5092695;28;20032;-77
2021/03/19 01:31:38;;;;;;;32.77;19.43;;;-0.20;99.90;;;;;;5093109;28;20035;-76
2021/03/19 01:34:04;;;;;;;30.90;18.70;;;-0.20;99.90;;;;;;5091610;28;20024;-77
2021/03/19 01:36:30;;;;;;;32.70;19.87;;;-0.20;99.90;;;;;;5092300;28;20024;-77
2021/03/19 01:38:55;;;;;;;33.30;20.00;;;-0.30;99.90;;;;;;5074095;28;20479;-77
2021/03/19 01:41:21;;;;;;;32.23;18.53;;;-0.30;99.90;;;;;;5092189;28;20028;-77
2021/03/19 01:44:05;;;;;;;29.03;18.50;;;-0.40;99.90;;;;;;5092211;28;20043;-77
2021/03/19 01:47:08;;;;;;;30.10;18.27;;;-0.40;99.90;;;;;;5092199;28;20032;-77
2021/03/19 01:50:11;;;;;;;31.40;19.43;;;-0.50;99.90;;;;;;5074304;28;20388;-75
2021/03/19 01:53:14;;;;;;;30.93;18.33;;;-0.50;99.90;;;;;;5080765;28;20024;-75
2021/03/19 01:56:17;;;;;;;31.13;18.60;;;-0.60;99.90;;;;;;5092048;28;20024;-75
2021/03/19 01:59:20;;;;;;;29.73;18.37;;;-0.60;99.90;;;;;;5092292;28;20039;-75
2021/03/19 02:02:23;;;;;;;27.63;16.83;;;-0.60;99.90;;;;;;5073855;28;20032;-75
2021/03/19 02:05:26;;;;;;;30.00;17.90;;;-0.60;99.90;;;;;;5061760;28;20036;-75
2021/03/19 02:08:29;;;;;;;27.27;17.00;;;-0.50;99.90;;;;;;5078726;28;20052;-75
2021/03/19 02:11:33;;;;;;;29.93;18.73;;;-0.50;99.90;;;;;;5073619;28;20024;-75
2021/03/19 02:14:36;;;;;;;30.63;18.80;;;-0.60;99.90;;;;;;5073417;28;20528;-75
2021/03/19 02:17:39;;;;;;;28.60;16.70;;;-0.70;99.90;;;;;;5091690;28;20099;-75
2021/03/19 02:20:42;;;;;;;33.00;18.63;;;-0.70;99.90;;;;;;5064370;28;20029;-75
2021/03/19 02:23:44;;;;;;;31.30;18.53;;;-0.80;99.90;;;;;;5079375;28;20017;-75
2021/03/19 02:26:47;;;;;;;30.90;18.30;;;-0.90;99.90;;;;;;5091642;28;20102;-75
2021/03/19 02:29:51;;;;;;;32.97;17.93;;;-0.90;99.90;;;;;;5073451;28;20035;-75
2021/03/19 02:32:20;;;;;;;34.73;19.80;;;-1.00;99.90;;;;;;5091489;28;20021;-75
2021/03/19 02:34:54;;;;;;;34.70;19.73;;;-1.00;99.90;;;;;;5091420;28;20069;-75
2021/03/19 02:37:22;;;;;;;34.27;20.20;;;-1.00;99.90;;;;;;5073185;28;20028;-75
2021/03/19 02:39:48;;;;;;;32.87;20.63;;;-1.00;99.90;;;;;;5090983;28;20012;-75
2021/03/19 02:42:16;;;;;;;32.53;20.50;;;-1.00;99.90;;;;;;5091517;28;20116;-75
2021/03/19 02:44:42;;;;;;;32.40;18.00;;;-1.00;99.90;;;;;;5091165;28;20044;-75
2021/03/19 02:47:09;;;;;;;31.87;19.20;;;-1.00;99.90;;;;;;5091076;28;20060;-75
2021/03/19 02:49:35;;;;;;;32.20;18.63;;;-0.90;99.90;;;;;;5090951;28;20031;-75
2021/03/19 02:52:01;;;;;;;32.07;19.63;;;-0.90;99.90;;;;;;5090786;28;20030;-75
2021/03/19 02:54:27;;;;;;;35.10;20.30;;;-0.90;99.90;;;;;;5090952;28;20225;-75
2021/03/19 02:56:52;;;;;;;33.30;19.43;;;-0.90;99.90;;;;;;5090883;28;20077;-76
2021/03/19 02:59:18;;;;;;;34.50;20.23;;;-0.80;99.90;;;;;;5090956;28;20484;-76
2021/03/19 03:01:44;;;;;;;36.40;19.30;;;-0.80;99.90;;;;;;5090861;28;20028;-75
2021/03/19 03:04:13;;;;;;;31.60;18.90;;;-0.80;99.90;;;;;;5090627;28;20074;-75
2021/03/19 03:06:40;;;;;;;32.53;18.40;;;-0.80;99.90;;;;;;5091070;28;20028;-75
2021/03/19 03:09:11;;;;;;;37.40;20.20;;;-0.70;99.90;;;;;;5088875;28;20039;-76
2021/03/19 03:11:37;;;;;;;32.73;18.87;;;-0.70;99.90;;;;;;5090873;28;20023;-75
2021/03/19 03:14:05;;;;;;;30.87;17.93;;;-0.70;99.90;;;;;;5090719;28;20115;-76
2021/03/19 03:16:31;;;;;;;30.20;18.93;;;-0.60;99.90;;;;;;5090701;28;20028;-75
2021/03/19 03:18:57;;;;;;;29.00;18.03;;;-0.70;99.90;;;;;;5086272;28;20368;-75
2021/03/19 03:21:22;;;;;;;32.00;19.23;;;-0.60;99.90;;;;;;5085708;28;20080;-73
2021/03/19 03:23:48;;;;;;;32.83;18.90;;;-0.60;99.90;;;;;;5091539;28;20019;-73
2021/03/19 03:26:14;;;;;;;30.43;18.93;;;-0.60;99.90;;;;;;5073806;28;20484;-73
2021/03/19 03:28:40;;;;;;;29.27;17.63;;;-0.60;99.90;;;;;;5091717;28;20020;-73
2021/03/19 03:31:07;;;;;;;28.57;17.53;;;-0.60;99.90;;;;;;5091664;28;20024;-73
2021/03/19 03:33:33;;;;;;;35.50;20.07;;;-0.60;99.90;;;;;;5091808;28;20020;-73
2021/03/19 03:35:59;;;;;;;30.00;17.27;;;-0.50;99.90;;;;;;5091752;28;20077;-73
2021/03/19 03:38:26;;;;;;;30.13;17.43;;;-0.50;99.90;;;;;;5091488;28;20102;-73
2021/03/19 03:41:03;;;;;;;27.03;17.40;;;-0.50;99.90;;;;;;5091533;28;20013;-73
2021/03/19 03:43:29;;;;;;;27.63;16.63;;;-0.50;99.90;;;;;;5091472;28;20055;-73
2021/03/19 03:45:56;;;;;;;29.07;17.50;;;-0.40;99.90;;;;;;5073153;28;20429;-73
2021/03/19 03:48:26;;;;;;;26.83;17.03;;;-0.40;99.90;;;;;;5091671;28;20051;-73
2021/03/19 03:50:52;;;;;;;27.83;18.03;;;-0.40;99.90;;;;;;5073279;28;20032;-73
2021/03/19 03:53:18;;;;;;;30.00;18.50;;;-0.40;99.90;;;;;;5091693;28;20020;-73
2021/03/19 03:55:44;;;;;;;30.10;16.93;;;-0.30;99.90;;;;;;5091464;28;20028;-73
2021/03/19 03:58:12;;;;;;;29.57;17.80;;;-0.30;99.90;;;;;;5094228;28;20028;-73
2021/03/19 04:00:38;;;;;;;28.83;18.30;;;-0.40;99.90;;;;;;5095629;28;20039;-73
2021/03/19 04:03:05;;;;;;;31.40;18.17;;;-0.30;99.90;;;;;;5095416;28;20040;-73
2021/03/19 04:05:35;;;;;;;32.13;18.30;;;-0.30;99.90;;;;;;5077315;28;20020;-73
2021/03/19 04:08:01;;;;;;;27.37;16.43;;;-0.30;99.90;;;;;;5095469;28;20017;-73
2021/03/19 04:10:27;;;;;;;27.13;17.87;;;-0.40;99.90;;;;;;5095512;28;20108;-73
2021/03/19 04:12:54;;;;;;;30.10;17.67;;;-0.30;99.90;;;;;;5077090;28;20038;-73
2021/03/19 04:15:20;;;;;;;32.33;19.87;;;-0.30;99.90;;;;;;5095125;28;20043;-73
2021/03/19 04:17:47;;;;;;;30.43;16.93;;;-0.30;99.90;;;;;;5094772;28;20085;-72
2021/03/19 04:20:17;;;;;;;29.57;17.83;;;-0.30;99.90;;;;;;5095583;28;20095;-73
2021/03/19 04:22:43;;;;;;;31.77;17.80;;;-0.30;99.90;;;;;;5094849;28;20081;-73
2021/03/19 04:25:10;;;;;;;29.93;17.70;;;-0.30;99.90;;;;;;5095023;28;20050;-73
2021/03/19 04:27:44;;;;;;;30.83;17.60;;;-0.30;99.90;;;;;;5076657;28;20333;-73
2021/03/19 04:30:21;;;;;;;29.02;18.25;;;-0.30;99.90;;;;;;5094688;28;20436;-73
2021/03/19 04:32:48;;;;;;;30.57;17.63;;;-0.30;99.90;;;;;;5076604;28;20119;-73
2021/03/19 04:35:15;;;;;;;31.57;17.40;;;-0.40;99.90;;;;;;5094501;28;20469;-73
2021/03/19 04:37:41;;;;;;;28.57;17.73;;;-0.40;99.90;;;;;;5076217;28;20048;-73
2021/03/19 04:40:08;;;;;;;31.70;17.50;;;-0.40;99.90;;;;;;5094345;28;20056;-73
2021/03/19 04:42:34;;;;;;;33.10;19.33;;;-0.40;99.90;;;;;;5094212;28;20028;-73
2021/03/19 04:44:59;;;;;;;29.50;17.57;;;-0.40;99.90;;;;;;5093931;28;20464;-73
2021/03/19 04:47:25;;;;;;;28.20;16.43;;;-0.40;99.90;;;;;;5069906;28;20063;-73
2021/03/19 04:49:50;;;;;;;27.60;17.60;;;-0.40;99.90;;;;;;5086562;28;20031;-73
2021/03/19 04:52:16;;;;;;;29.27;17.77;;;-0.40;99.90;;;;;;5094138;28;20028;-73
2021/03/19 04:54:42;;;;;;;34.23;17.70;;;-0.40;99.90;;;;;;5094358;28;20043;-73
2021/03/19 04:57:07;;;;;;;28.50;16.80;;;-0.40;99.90;;;;;;5094295;28;20028;-73
2021/03/19 04:59:33;;;;;;;30.67;17.17;;;-0.40;99.90;;;;;;5075951;28;20065;-73
2021/03/19 05:02:00;;;;;;;28.13;16.80;;;-0.40;99.90;;;;;;5094044;28;20020;-73
2021/03/19 05:04:27;;;;;;;33.57;17.63;;;-0.40;99.90;;;;;;5088138;28;20025;-73
2021/03/19 05:07:00;;;;;;;29.10;17.70;;;-0.40;99.90;;;;;;5086612;28;20040;-73
2021/03/19 05:09:27;;;;;;;31.17;17.80;;;-0.40;99.90;;;;;;5092317;28;20020;-77
2021/03/19 05:11:53;;;;;;;30.00;17.77;;;-0.40;99.90;;;;;;5093117;28;20043;-77
2021/03/19 05:14:19;;;;;;;30.27;17.40;;;-0.40;99.90;;;;;;5074710;28;20028;-77
2021/03/19 05:16:45;;;;;;;29.70;16.53;;;-0.50;99.90;;;;;;5074401;28;20032;-77
2021/03/19 05:19:11;;;;;;;28.13;15.87;;;-0.50;99.90;;;;;;5093496;28;20464;-77
2021/03/19 05:21:36;;;;;;;32.10;17.27;;;-0.50;99.90;;;;;;5092351;28;20503;-77
2021/03/19 05:24:02;;;;;;;28.97;17.00;;;-0.50;99.90;;;;;;5081558;28;20416;-77
2021/03/19 05:26:29;;;;;;;28.67;17.27;;;-0.50;99.90;;;;;;5085919;28;20481;-77
2021/03/19 05:28:54;;;;;;;26.90;16.30;;;-0.50;99.90;;;;;;5088213;28;20073;-77
2021/03/19 05:31:20;;;;;;;28.37;16.60;;;-0.50;99.90;;;;;;5086939;28;20024;-77
2021/03/19 05:33:54;;;;;;;30.83;17.43;;;-0.50;99.90;;;;;;5090302;28;20020;-77
2021/03/19 05:36:26;;;;;;;28.40;17.17;;;-0.50;99.90;;;;;;5089977;28;20883;-77
2021/03/19 05:38:53;;;;;;;25.77;16.00;;;-0.50;99.90;;;;;;5089120;28;20105;-77
2021/03/19 05:41:21;;;;;;;24.00;15.13;;;-0.50;99.90;;;;;;5084623;28;20103;-77
2021/03/19 05:43:49;;;;;;;24.10;14.67;;;-0.50;99.90;;;;;;5069202;28;20089;-77
2021/03/19 05:46:20;;;;;;;29.80;16.00;;;-0.40;99.90;;;;;;5086512;28;20047;-77
2021/03/19 05:49:09;;;;;;;27.47;15.93;;;-0.40;99.90;;;;;;5089134;28;20686;-77
2021/03/19 05:51:43;;;;;;;27.40;15.87;;;-0.40;99.90;;;;;;5068970;28;20488;-77
2021/03/19 05:54:26;;;;;;;29.20;17.15;;;-0.40;99.90;;;;;;5091365;28;20040;-77
2021/03/19 05:57:04;;;;;;;27.30;15.67;;;-0.40;99.90;;;;;;5090244;28;20025;-77
2021/03/19 05:59:50;;;;;;;27.20;15.93;;;-0.30;99.90;;;;;;5090313;28;20022;-77
2021/03/19 06:02:34;;;;;;;26.93;15.90;;;-0.30;99.90;;;;;;5086957;28;20125;-77
2021/03/19 06:05:14;;;;;;;28.43;16.03;;;-0.30;99.90;;;;;;5074121;28;20358;-77
2021/03/19 06:07:49;;;;;;;25.77;15.50;;;-0.30;99.90;;;;;;5091045;28;20031;-77
2021/03/19 06:10:22;;;;;;;28.43;16.57;;;-0.30;99.90;;;;;;5069816;28;20421;-77
2021/03/19 06:12:50;;;;;;;26.50;16.13;;;-0.20;99.90;;;;;;5072898;28;20048;-77
2021/03/19 06:15:29;;;;;;;25.40;14.57;;;-0.20;99.90;;;;;;5090461;28;20077;-77
2021/03/19 06:17:56;;;;;;;25.27;15.17;;;-0.20;99.90;;;;;;5089569;28;20396;-77
2021/03/19 06:20:23;;;;;;;25.07;14.40;;;-0.20;99.90;;;;;;5084722;28;20091;-77
2021/03/19 06:22:59;;;;;;;23.60;14.40;;;-0.20;99.90;;;;;;5081739;28;20500;-77
2021/03/19 06:25:25;;;;;;;25.10;14.27;;;-0.30;99.90;;;;;;5078295;28;20407;-77
2021/03/19 06:28:10;;;;;;;24.17;13.53;;;-0.20;99.90;;;;;;5085369;28;20032;-77
2021/03/19 06:30:43;;;;;;;23.63;12.80;;;-0.20;99.90;;;;;;5080336;28;20028;-77
2021/03/19 06:33:14;;;;;;;24.57;14.83;;;-0.20;99.90;;;;;;5091734;28;20522;-77
2021/03/19 06:35:43;;;;;;;25.30;14.60;;;-0.10;99.90;;;;;;5092652;28;20027;-74
2021/03/19 06:38:32;;;;;;;23.13;14.33;;;-0.10;99.90;;;;;;5091484;28;20046;-73
2021/03/19 06:41:29;;;;;;;22.17;12.57;;;-0.10;99.90;;;;;;5088882;28;20027;-73
2021/03/19 06:44:15;;;;;;;19.43;12.37;;;0.00;99.90;;;;;;5091717;28;20123;-73
2021/03/19 06:46:45;;;;;;;22.23;13.07;;;0.10;99.90;;;;;;5089468;28;20103;-77
2021/03/19 06:49:12;;;;;;;22.50;13.83;;;0.00;99.90;;;;;;5076888;28;20028;-77
2021/03/19 06:51:40;;;;;;;23.97;14.20;;;0.10;99.90;;;;;;5079140;28;20020;-77
2021/03/19 06:54:07;;;;;;;24.23;14.57;;;0.10;99.90;;;;;;5073100;28;20068;-76
2021/03/19 06:56:33;;;;;;;22.90;13.53;;;0.20;99.90;;;;;;5081110;28;20089;-77
2021/03/19 06:59:23;;;;;;;20.27;12.90;;;0.40;99.90;;;;;;5081669;28;20030;-74
2021/03/19 07:01:49;;;;;;;20.13;13.13;;;0.40;99.90;;;;;;5071691;28;20356;-74
2021/03/19 07:04:33;;;;;;;20.33;13.07;;;0.50;99.90;;;;;;5065073;28;20119;-70
2021/03/19 07:07:17;;;;;;;22.93;14.87;;;0.60;99.90;;;;;;5078185;28;20036;-76
2021/03/19 07:10:07;;;;;;;20.43;13.40;;;0.70;99.90;;;;;;5067469;28;20027;-76
2021/03/19 07:12:54;;;;;;;21.30;12.70;;;0.80;99.90;;;;;;5070926;28;20495;-76
2021/03/19 07:15:23;;;;;;;21.13;13.30;;;0.80;99.90;;;;;;5090793;28;20031;-73
2021/03/19 07:17:56;;;;;;;22.30;13.57;;;0.80;99.90;;;;;;5090417;28;20042;-74
2021/03/19 07:20:46;;;;;;;21.40;13.23;;;0.80;99.90;;;;;;5069353;28;20472;-74
2021/03/19 07:23:20;;;;;;;19.90;12.67;;;0.80;99.90;;;;;;5065339;28;20039;-74
2021/03/19 07:26:14;;;;;;;19.02;12.02;;;1.00;99.90;;;;;;5084485;28;20042;-74
2021/03/19 07:29:11;;;;;;;19.97;12.80;;;1.00;99.90;;;;;;5085243;28;20024;-74
2021/03/19 07:31:52;;;;;;;21.03;13.00;;;1.00;99.90;;;;;;5084690;28;20028;-74
2021/03/19 07:34:44;;;;;;;18.53;12.33;;;1.00;99.90;;;;;;5089338;28;20024;-74
2021/03/19 07:37:09;;;;;;;18.07;11.83;;;1.10;99.90;;;;;;5076642;28;20024;-74
2021/03/19 07:39:44;;;;;;;21.57;13.70;;;1.10;99.90;;;;;;5071196;28;20016;-74
2021/03/19 07:42:45;;;;;;;19.02;12.38;;;1.10;99.90;;;;;;5071729;28;20058;-74
2021/03/19 07:45:44;;;;;;;19.83;11.97;;;1.20;99.90;;;;;;5089981;28;20020;-74
2021/03/19 07:48:37;;;;;;;19.87;11.70;;;1.20;99.90;;;;;;5090404;28;20454;-74
2021/03/19 07:51:29;;;;;;;21.80;13.30;;;1.20;99.90;;;;;;5078200;28;20027;-74
2021/03/19 07:53:58;;;;;;;21.43;12.90;;;1.20;99.90;;;;;;5090477;28;20035;-74
2021/03/19 07:56:26;;;;;;;20.37;12.50;;;1.20;99.90;;;;;;5088888;28;20108;-75
2021/03/19 07:58:58;;;;;;;18.17;12.70;;;1.20;99.90;;;;;;5089537;28;20035;-75
2021/03/19 08:01:32;;;;;;;19.97;12.67;;;1.20;99.90;;;;;;5071194;28;20028;-75
2021/03/19 08:04:04;;;;;;;22.90;13.47;;;1.20;99.90;;;;;;5089602;28;20070;-75
2021/03/19 08:06:36;;;;;;;22.47;13.30;;;1.30;99.90;;;;;;5090564;28;20512;-76
2021/03/19 08:09:43;;;;;;;19.70;12.50;;;1.30;99.90;;;;;;5089418;28;20031;-77
2021/03/19 08:12:23;;;;;;;21.40;12.98;;;1.30;99.90;;;;;;5059373;28;20036;-77
2021/03/19 08:15:04;;;;;;;21.07;12.73;;;1.40;99.90;;;;;;5086652;28;20028;-77
2021/03/19 08:18:08;;;;;;;21.77;13.43;;;1.50;99.90;;;;;;5089421;28;20570;-78
2021/03/19 08:20:46;;;;;;;22.07;12.93;;;1.60;99.90;;;;;;5068579;28;20097;-77
2021/03/19 08:23:53;;;;;;;20.73;12.60;;;1.60;99.90;;;;;;5086575;28;20433;-77
2021/03/19 08:26:30;;;;;;;20.57;12.90;;;1.60;99.90;;;;;;5058638;28;20066;-77
2021/03/19 08:29:01;;;;;;;21.30;13.23;;;1.70;99.90;;;;;;5090064;28;20028;-78
2021/03/19 08:31:48;;;;;;;19.47;13.20;;;1.60;99.90;;;;;;5089709;28;20328;-77
2021/03/19 08:34:31;;;;;;;19.63;12.27;;;1.60;99.90;;;;;;5072620;28;20039;-76
2021/03/19 08:36:57;;;;;;;21.77;13.30;;;1.70;99.90;;;;;;5090622;28;20039;-75
2021/03/19 08:39:42;;;;;;;21.40;13.37;;;1.70;99.90;;;;;;5089321;28;20017;-75
2021/03/19 08:42:14;;;;;;;21.65;13.45;;;1.70;99.90;;;;;;5089102;28;20372;-75
2021/03/19 08:44:42;;;;;;;24.13;14.30;;;1.70;99.90;;;;;;5075027;28;20026;-75
2021/03/19 08:47:22;;;;;;;21.17;12.47;;;1.70;99.90;;;;;;5093614;28;20032;-75
2021/03/19 08:49:51;;;;;;;22.80;14.03;;;1.70;99.90;;;;;;5093221;28;20024;-75
2021/03/19 08:52:36;;;;;;;21.27;14.47;;;1.60;99.90;;;;;;5093324;28;20373;-75
2021/03/19 08:55:17;;;;;;;22.45;14.38;;;1.60;99.90;;;;;;5094009;28;20023;-75
2021/03/19 08:57:45;;;;;;;21.93;14.20;;;1.50;99.90;;;;;;5080133;28;20362;-75
2021/03/19 09:00:39;;;;;;;25.70;15.97;;;1.50;99.90;;;;;;5093637;28;20487;-75
2021/03/19 09:03:30;;;;;;;24.27;15.63;;;1.40;99.90;;;;;;5093064;28;20397;-75
2021/03/19 09:06:05;;;;;;;27.43;15.50;;;1.30;99.90;;;;;;5093220;28;20381;-75
2021/03/19 09:09:31;;;;;;;22.63;14.60;;;1.30;99.90;;;;;;5074984;28;20039;-75
2021/03/19 09:11:56;;;;;;;23.03;14.90;;;1.30;99.90;;;;;;5085651;28;20127;-73
2021/03/19 09:14:38;;;;;;;26.50;16.50;;;1.10;99.90;;;;;;5069479;28;20872;-73
2021/03/19 09:17:06;;;;;;;24.70;15.43;;;1.10;99.90;;;;;;5093646;28;20430;-73
2021/03/19 09:19:45;;;;;;;25.00;15.53;;;1.00;99.90;;;;;;5075110;28;20031;-75
2021/03/19 09:22:33;;;;;;;28.87;16.17;;;1.10;99.90;;;;;;5072212;28;20452;-76
2021/03/19 09:25:11;;;;;;;24.53;15.07;;;1.00;99.90;;;;;;5084991;28;20020;-76
2021/03/19 09:28:03;;;;;;;23.77;15.17;;;1.00;99.90;;;;;;5061079;28;20044;-76
2021/03/19 09:30:55;;;;;;;23.30;14.83;;;1.20;99.90;;;;;;5085290;28;20027;-76
2021/03/19 09:33:42;;;;;;;22.47;14.53;;;1.40;99.90;;;;;;5089778;28;20031;-77
2021/03/19 09:36:46;;;;;;;26.17;15.90;;;1.60;99.90;;;;;;5089753;28;20024;-77
2021/03/19 09:39:45;;;;;;;26.17;15.43;;;1.80;99.90;;;;;;5086755;28;20104;-77
2021/03/19 09:42:20;;;;;;;23.37;15.20;;;1.90;99.90;;;;;;5092668;28;20016;-74
2021/03/19 09:44:52;;;;;;;26.75;17.45;;;2.10;99.90;;;;;;5075110;28;20361;-74
2021/03/19 09:47:22;;;;;;;28.00;17.17;;;2.20;99.90;;;;;;5093118;28;20024;-73
2021/03/19 09:49:48;;;;;;;27.10;16.63;;;2.20;99.90;;;;;;5093573;28;20028;-74
2021/03/19 09:52:21;;;;;;;25.17;16.20;;;2.40;99.90;;;;;;5092797;28;20008;-77
2021/03/19 09:54:48;;;;;;;23.33;16.30;;;2.60;99.90;;;;;;5090330;28;20502;-76
2021/03/19 09:57:20;;;;;;;23.90;15.57;;;2.70;99.90;;;;;;5078615;28;20022;-74
2021/03/19 09:59:53;;;;;;;23.67;15.40;;;2.80;99.90;;;;;;5066092;28;20051;-74
2021/03/19 10:02:42;;;;;;;21.87;15.37;;;3.00;99.90;;;;;;5082528;28;20039;-74
2021/03/19 10:05:18;;;;;;;24.50;16.40;;;3.10;99.90;;;;;;5085742;28;20020;-74
2021/03/19 10:07:44;;;;;;;20.93;13.87;;;3.00;99.90;;;;;;5092031;28;20027;-74
2021/03/19 10:10:22;;;;;;;21.40;14.47;;;3.10;99.90;;;;;;5073860;28;20032;-74
2021/03/19 10:12:48;;;;;;;22.87;14.73;;;3.20;99.90;;;;;;5091926;28;20110;-74
2021/03/19 10:15:19;;;;;;;22.70;15.23;;;3.10;99.90;;;;;;5071915;28;20087;-73
2021/03/19 10:17:50;;;;;;;20.70;14.23;;;3.20;99.90;;;;;;5092038;28;20028;-74
2021/03/19 10:20:27;;;;;;;21.57;14.97;;;3.40;99.90;;;;;;5061278;28;20020;-73
2021/03/19 10:23:13;;;;;;;25.43;16.20;;;3.40;99.90;;;;;;5072309;28;20024;-73
2021/03/19 10:25:44;;;;;;;22.50;15.32;;;3.20;99.90;;;;;;5069254;28;20016;-74
2021/03/19 10:28:20;;;;;;;23.27;16.03;;;3.50;99.90;;;;;;5090264;28;20027;-74
2021/03/19 10:30:55;;;;;;;23.90;16.50;;;3.30;99.90;;;;;;5089254;28;20056;-76
2021/03/19 10:33:55;;;;;;;25.45;16.08;;;3.60;99.90;;;;;;5086292;28;20365;-77
2021/03/19 10:36:39;;;;;;;24.80;15.80;;;3.80;99.90;;;;;;5091054;28;20032;-77
2021/03/19 10:39:25;;;;;;;22.67;15.90;;;4.00;99.90;;;;;;5072758;28;20057;-77
2021/03/19 10:41:53;;;;;;;;;;;4.20;99.90;;;;;;5087612;28;20039;-77
2021/03/19 10:44:26;;;;;;;23.47;15.70;;;4.10;99.90;;;;;;5068760;28;20279;-77
2021/03/19 10:47:07;;;;;;;24.67;16.33;;;4.20;99.90;;;;;;5092328;28;20064;-78
2021/03/19 10:49:53;;;;;;;22.60;15.90;;;4.10;99.90;;;;;;5092414;28;20381;-78
2021/03/19 10:53:02;;;;;;;21.33;14.23;;;4.10;99.90;;;;;;5090750;28;20325;-78
2021/03/19 10:55:32;;;;;;;23.03;16.20;;;4.30;99.90;;;;;;5026648;28;20030;-77
2021/03/19 10:58:40;;;;;;;23.13;14.97;;;4.30;99.90;;;;;;5031864;28;20398;-77
2021/03/19 11:01:44;;;;;;;23.30;15.93;;;4.00;99.90;;;;;;5047536;28;20033;-78
2021/03/19 11:04:48;;;;;;;19.07;14.17;;;4.00;99.90;;;;;;5050899;28;20389;-77
2021/03/19 11:07:18;;;;;;;22.57;16.13;;;3.80;99.90;;;;;;5030882;28;20045;-78
2021/03/19 11:10:05;;;;;;;22.47;15.37;;;3.70;99.90;;;;;;5060660;28;20036;-77
2021/03/19 11:12:48;;;;;;;21.07;15.27;;;3.80;99.90;;;;;;5090955;28;20468;-78
2021/03/19 11:15:14;;;;;;;22.10;14.77;;;3.80;99.90;;;;;;5094262;28;20031;-78
2021/03/19 11:17:40;;;;;;;25.00;17.10;;;3.80;99.90;;;;;;5093418;28;20028;-78
2021/03/19 11:20:20;;;;;;;19.63;14.47;;;3.90;99.90;;;;;;5075371;28;20115;-78
2021/03/19 11:22:48;;;;;;;19.63;14.40;;;4.10;99.90;;;;;;5093433;28;20024;-78
2021/03/19 11:25:43;;;;;;;19.53;13.50;;;4.30;99.90;;;;;;5093265;28;20069;-78
2021/03/19 11:28:15;;;;;;;24.85;16.17;;;4.40;99.90;;;;;;5093286;28;20028;-77
2021/03/19 11:30:40;;;;;;;22.30;16.30;;;4.30;99.90;;;;;;5088608;28;20020;-74
2021/03/19 11:33:16;;;;;;;21.63;15.30;;;4.10;99.90;;;;;;5077019;28;20025;-78
2021/03/19 11:35:41;;;;;;;21.75;16.35;;;3.70;99.90;;;;;;5057346;28;20025;-78
2021/03/19 11:38:33;;;;;;;23.73;18.23;;;3.50;99.90;;;;;;5078973;28;20028;-78
2021/03/19 11:41:00;;;;;;;25.17;17.47;;;3.30;99.90;;;;;;5088084;28;20028;-78
2021/03/19 11:43:26;;;;;;;30.50;20.00;;;3.00;99.90;;;;;;5089154;28;20051;-78
2021/03/19 11:45:51;;;;;;;29.47;20.90;;;2.90;99.90;;;;;;5061812;28;20495;-74
2021/03/19 11:48:31;;;;;;;24.17;15.63;;;2.70;99.90;;;;;;5090319;28;20501;-77
2021/03/19 11:51:21;;;;;;;22.77;16.33;;;2.80;99.90;;;;;;5067543;28;20115;-77
2021/03/19 11:53:47;;;;;;;19.27;15.03;;;2.60;99.90;;;;;;5068542;28;20077;-75
2021/03/19 11:56:13;;;;;;;22.80;16.63;;;2.60;99.90;;;;;;5090934;28;20024;-75
2021/03/19 11:58:39;;;;;;;23.90;17.47;;;2.60;99.90;;;;;;5090781;28;20095;-75
2021/03/19 12:01:07;;;;;;;21.90;15.20;;;2.80;99.90;;;;;;5091411;28;20107;-76
2021/03/19 12:03:43;;;;;;;18.47;12.80;;;3.30;99.90;;;;;;5090713;28;20067;-76
2021/03/19 12:06:12;;;;;;;18.27;12.33;;;3.60;99.90;;;;;;5061427;28;20413;-76
2021/03/19 12:08:39;;;;;;;15.37;11.43;;;3.80;99.90;;;;;;5090652;28;20077;-76
2021/03/19 12:11:08;;;;;;;15.17;10.80;;;3.90;99.90;;;;;;5090621;28;20115;-76
2021/03/19 12:13:34;;;;;;;17.63;12.43;;;4.10;99.90;;;;;;5072240;28;20055;-76
2021/03/19 12:16:00;;;;;;;17.00;11.40;;;4.20;99.90;;;;;;5089690;28;20127;-76
2021/03/19 12:18:28;;;;;;;16.53;11.67;;;4.20;99.90;;;;;;5091703;28;20111;-76
2021/03/19 12:20:56;;;;;;;16.47;11.97;;;4.30;99.90;;;;;;5087744;28;20081;-77
2021/03/19 12:23:22;;;;;;;14.77;11.30;;;4.40;99.90;;;;;;5089940;28;20482;-78
2021/03/19 12:25:48;;;;;;;17.30;11.10;;;4.60;99.90;;;;;;5083939;28;20066;-78
2021/03/19 12:28:19;;;;;;;14.67;10.67;;;4.60;99.90;;;;;;5084538;28;20024;-78
2021/03/19 12:30:46;;;;;;;15.17;10.90;;;4.60;99.90;;;;;;5085887;28;20035;-78
2021/03/19 12:33:12;;;;;;;16.80;12.03;;;4.30;99.90;;;;;;5091614;28;20027;-78
2021/03/19 12:35:41;;;;;;;12.77;9.43;;;4.30;99.90;;;;;;5076779;28;20494;-78
2021/03/19 12:38:07;;;;;;;13.50;10.03;;;4.10;99.90;;;;;;5093762;28;20028;-78
2021/03/19 12:40:32;;;;;;;18.63;12.50;;;4.00;99.90;;;;;;5091131;28;20032;-78
2021/03/19 12:42:59;;;;;;;13.20;10.23;;;3.90;99.90;;;;;;5068081;28;20182;-78
2021/03/19 12:45:28;;;;;;;16.70;11.47;;;3.70;99.90;;;;;;5087167;28;20027;-78
2021/03/19 12:47:54;;;;;;;16.30;10.93;;;3.60;99.90;;;;;;5074051;28;20036;-77
2021/03/19 12:50:23;;;;;;;14.10;10.77;;;3.50;99.90;;;;;;5085879;28;20218;-77
2021/03/19 12:52:49;;;;;;;13.67;10.00;;;3.40;99.90;;;;;;5066239;28;20051;-76
2021/03/19 12:55:16;;;;;;;16.03;10.50;;;3.40;99.90;;;;;;5084868;28;20032;-76
2021/03/19 12:57:42;;;;;;;13.30;10.00;;;3.40;99.90;;;;;;5070747;28;20036;-76
2021/03/19 13:00:09;;;;;;;16.97;11.30;;;3.30;99.90;;;;;;5085534;28;20074;-76
2021/03/19 13:02:34;;;;;;;16.00;11.47;;;3.20;99.90;;;;;;5080311;28;20044;-76
2021/03/19 13:05:00;;;;;;;14.70;10.30;;;3.00;99.90;;;;;;5088738;28;20028;-76
2021/03/19 13:07:26;;;;;;;16.50;11.57;;;2.80;99.90;;;;;;5086967;28;20028;-76
2021/03/19 13:09:52;;;;;;;18.00;12.13;;;2.50;99.90;;;;;;5083845;28;20458;-75